sensor_id;sensor_type;location;lat;lon;timestamp;P1;durP1;ratioP1;P2;durP2;ratioP2
72649;SDS011;61467;50.674;4.618;2024-01-30T00:01:17;10.93;;;4.57;;
72649;SDS011;61467;50.674;4.618;2024-01-30T00:03:44;10.25;;;4.70;;
72649;SDS011;61467;50.674;4.618;2024-01-30T00:06:11;8.25;;;4.28;;
72649;SDS011;61467;50.674;4.618;2024-01-30T00:08:38;9.80;;;4.50;;
72649;SDS011;61467;50.674;4.618;2024-01-30T00:11:05;9.93;;;4.20;;
72649;SDS011;61467;50.674;4.618;2024-01-30T00:13:33;10.02;;;4.43;;
72649;SDS011;61467;50.674;4.618;2024-01-30T00:16:01;8.48;;;3.75;;
72649;SDS011;61467;50.674;4.618;2024-01-30T00:18:29;8.73;;;4.15;;
72649;SDS011;61467;50.674;4.618;2024-01-30T00:20:56;8.50;;;4.03;;
72649;SDS011;61467;50.674;4.618;2024-01-30T00:23:23;8.48;;;4.22;;
72649;SDS011;61467;50.674;4.618;2024-01-30T00:25:50;8.82;;;4.00;;
72649;SDS011;61467;50.674;4.618;2024-01-30T00:28:17;8.68;;;4.47;;
72649;SDS011;61467;50.674;4.618;2024-01-30T00:30:44;9.75;;;4.38;;
72649;SDS011;61467;50.674;4.618;2024-01-30T00:33:12;9.13;;;4.47;;
72649;SDS011;61467;50.674;4.618;2024-01-30T00:35:40;8.68;;;4.40;;
72649;SDS011;61467;50.674;4.618;2024-01-30T00:38:07;9.65;;;4.85;;
72649;SDS011;61467;50.674;4.618;2024-01-30T00:40:34;9.05;;;4.30;;
72649;SDS011;61467;50.674;4.618;2024-01-30T00:43:00;9.85;;;4.82;;
72649;SDS011;61467;50.674;4.618;2024-01-30T00:45:27;10.57;;;4.50;;
72649;SDS011;61467;50.674;4.618;2024-01-30T00:47:54;9.15;;;4.63;;
72649;SDS011;61467;50.674;4.618;2024-01-30T00:50:22;10.02;;;4.82;;
72649;SDS011;61467;50.674;4.618;2024-01-30T00:52:49;8.85;;;4.28;;
72649;SDS011;61467;50.674;4.618;2024-01-30T00:55:16;9.10;;;4.63;;
72649;SDS011;61467;50.674;4.618;2024-01-30T00:57:43;8.20;;;4.00;;
72649;SDS011;61467;50.674;4.618;2024-01-30T01:00:12;10.32;;;4.50;;
72649;SDS011;61467;50.674;4.618;2024-01-30T01:02:42;8.73;;;3.95;;
72649;SDS011;61467;50.674;4.618;2024-01-30T01:05:09;8.23;;;4.40;;
72649;SDS011;61467;50.674;4.618;2024-01-30T01:07:37;8.73;;;4.70;;
72649;SDS011;61467;50.674;4.618;2024-01-30T01:10:05;9.53;;;4.23;;
72649;SDS011;61467;50.674;4.618;2024-01-30T01:12:33;10.88;;;4.35;;
72649;SDS011;61467;50.674;4.618;2024-01-30T01:15:00;9.57;;;4.18;;
72649;SDS011;61467;50.674;4.618;2024-01-30T01:17:27;8.35;;;4.03;;
72649;SDS011;61467;50.674;4.618;2024-01-30T01:19:54;9.13;;;4.55;;
72649;SDS011;61467;50.674;4.618;2024-01-30T01:22:23;10.80;;;4.60;;
72649;SDS011;61467;50.674;4.618;2024-01-30T01:24:52;9.88;;;4.18;;
72649;SDS011;61467;50.674;4.618;2024-01-30T01:27:18;13.13;;;4.90;;
72649;SDS011;61467;50.674;4.618;2024-01-30T01:29:46;11.25;;;4.80;;
72649;SDS011;61467;50.674;4.618;2024-01-30T01:32:13;10.13;;;5.00;;
72649;SDS011;61467;50.674;4.618;2024-01-30T01:34:40;8.67;;;4.10;;
72649;SDS011;61467;50.674;4.618;2024-01-30T01:37:06;9.68;;;4.22;;
72649;SDS011;61467;50.674;4.618;2024-01-30T01:39:33;10.65;;;4.38;;
72649;SDS011;61467;50.674;4.618;2024-01-30T01:42:04;9.07;;;4.53;;
72649;SDS011;61467;50.674;4.618;2024-01-30T01:44:31;9.43;;;4.22;;
72649;SDS011;61467;50.674;4.618;2024-01-30T01:46:58;9.63;;;4.40;;
72649;SDS011;61467;50.674;4.618;2024-01-30T01:49:25;10.18;;;4.53;;
72649;SDS011;61467;50.674;4.618;2024-01-30T01:51:54;11.45;;;5.03;;
72649;SDS011;61467;50.674;4.618;2024-01-30T01:54:23;10.35;;;4.78;;
72649;SDS011;61467;50.674;4.618;2024-01-30T01:56:51;11.35;;;4.70;;
72649;SDS011;61467;50.674;4.618;2024-01-30T01:59:20;9.50;;;4.13;;
72649;SDS011;61467;50.674;4.618;2024-01-30T02:01:48;11.88;;;4.38;;
72649;SDS011;61467;50.674;4.618;2024-01-30T02:04:15;10.38;;;4.00;;
72649;SDS011;61467;50.674;4.618;2024-01-30T02:06:42;9.48;;;3.83;;
72649;SDS011;61467;50.674;4.618;2024-01-30T02:09:09;10.32;;;3.90;;
72649;SDS011;61467;50.674;4.618;2024-01-30T02:11:36;10.13;;;4.20;;
72649;SDS011;61467;50.674;4.618;2024-01-30T02:14:03;9.70;;;4.40;;
72649;SDS011;61467;50.674;4.618;2024-01-30T02:16:31;9.38;;;3.83;;
72649;SDS011;61467;50.674;4.618;2024-01-30T02:18:58;8.10;;;3.40;;
72649;SDS011;61467;50.674;4.618;2024-01-30T02:21:27;9.30;;;4.15;;
72649;SDS011;61467;50.674;4.618;2024-01-30T02:23:54;8.10;;;3.50;;
72649;SDS011;61467;50.674;4.618;2024-01-30T02:26:21;9.98;;;4.15;;
72649;SDS011;61467;50.674;4.618;2024-01-30T02:28:48;8.18;;;3.75;;
72649;SDS011;61467;50.674;4.618;2024-01-30T02:31:15;7.63;;;4.03;;
72649;SDS011;61467;50.674;4.618;2024-01-30T02:33:42;9.13;;;4.07;;
72649;SDS011;61467;50.674;4.618;2024-01-30T02:36:11;9.30;;;4.13;;
72649;SDS011;61467;50.674;4.618;2024-01-30T02:38:39;9.10;;;4.00;;
72649;SDS011;61467;50.674;4.618;2024-01-30T02:41:06;7.38;;;3.97;;
72649;SDS011;61467;50.674;4.618;2024-01-30T02:43:33;9.90;;;4.45;;
72649;SDS011;61467;50.674;4.618;2024-01-30T02:45:58;9.17;;;3.97;;
72649;SDS011;61467;50.674;4.618;2024-01-30T02:48:26;9.18;;;3.78;;
72649;SDS011;61467;50.674;4.618;2024-01-30T02:50:53;8.30;;;4.22;;
72649;SDS011;61467;50.674;4.618;2024-01-30T02:53:19;9.98;;;3.75;;
72649;SDS011;61467;50.674;4.618;2024-01-30T02:55:48;8.30;;;4.20;;
72649;SDS011;61467;50.674;4.618;2024-01-30T02:58:14;8.23;;;4.13;;
72649;SDS011;61467;50.674;4.618;2024-01-30T03:00:41;11.07;;;4.10;;
72649;SDS011;61467;50.674;4.618;2024-01-30T03:03:08;9.50;;;4.45;;
72649;SDS011;61467;50.674;4.618;2024-01-30T03:05:36;9.98;;;4.50;;
72649;SDS011;61467;50.674;4.618;2024-01-30T03:08:04;11.15;;;4.18;;
72649;SDS011;61467;50.674;4.618;2024-01-30T03:10:31;8.97;;;4.37;;
72649;SDS011;61467;50.674;4.618;2024-01-30T03:12:59;11.73;;;4.15;;
72649;SDS011;61467;50.674;4.618;2024-01-30T03:15:27;9.10;;;4.07;;
72649;SDS011;61467;50.674;4.618;2024-01-30T03:17:54;8.38;;;4.10;;
72649;SDS011;61467;50.674;4.618;2024-01-30T03:20:21;8.05;;;4.03;;
72649;SDS011;61467;50.674;4.618;2024-01-30T03:22:48;8.70;;;4.37;;
72649;SDS011;61467;50.674;4.618;2024-01-30T03:25:15;10.68;;;4.53;;
72649;SDS011;61467;50.674;4.618;2024-01-30T03:27:44;11.02;;;4.28;;
72649;SDS011;61467;50.674;4.618;2024-01-30T03:30:12;8.25;;;3.78;;
72649;SDS011;61467;50.674;4.618;2024-01-30T03:32:39;8.73;;;4.38;;
72649;SDS011;61467;50.674;4.618;2024-01-30T03:35:06;9.13;;;4.10;;
72649;SDS011;61467;50.674;4.618;2024-01-30T03:37:39;9.55;;;3.92;;
72649;SDS011;61467;50.674;4.618;2024-01-30T03:40:06;9.93;;;4.30;;
72649;SDS011;61467;50.674;4.618;2024-01-30T03:42:33;8.27;;;3.78;;
72649;SDS011;61467;50.674;4.618;2024-01-30T03:45:01;7.50;;;3.42;;
72649;SDS011;61467;50.674;4.618;2024-01-30T03:47:29;8.67;;;3.93;;
72649;SDS011;61467;50.674;4.618;2024-01-30T03:49:56;10.18;;;3.60;;
72649;SDS011;61467;50.674;4.618;2024-01-30T03:52:23;9.38;;;3.97;;
72649;SDS011;61467;50.674;4.618;2024-01-30T03:54:50;8.50;;;4.15;;
72649;SDS011;61467;50.674;4.618;2024-01-30T03:57:17;10.27;;;3.88;;
72649;SDS011;61467;50.674;4.618;2024-01-30T03:59:43;11.30;;;4.33;;
72649;SDS011;61467;50.674;4.618;2024-01-30T04:02:10;10.02;;;4.05;;
72649;SDS011;61467;50.674;4.618;2024-01-30T04:04:38;8.30;;;4.22;;
72649;SDS011;61467;50.674;4.618;2024-01-30T04:07:05;10.23;;;4.55;;
72649;SDS011;61467;50.674;4.618;2024-01-30T04:09:32;10.95;;;5.13;;
72649;SDS011;61467;50.674;4.618;2024-01-30T04:11:59;9.93;;;3.50;;
72649;SDS011;61467;50.674;4.618;2024-01-30T04:14:28;8.07;;;3.78;;
72649;SDS011;61467;50.674;4.618;2024-01-30T04:16:54;9.20;;;4.50;;
72649;SDS011;61467;50.674;4.618;2024-01-30T04:19:21;9.02;;;3.95;;
72649;SDS011;61467;50.674;4.618;2024-01-30T04:21:52;8.63;;;4.22;;
72649;SDS011;61467;50.674;4.618;2024-01-30T04:24:18;9.53;;;4.30;;
72649;SDS011;61467;50.674;4.618;2024-01-30T04:26:45;8.43;;;3.85;;
72649;SDS011;61467;50.674;4.618;2024-01-30T04:29:12;11.77;;;4.13;;
72649;SDS011;61467;50.674;4.618;2024-01-30T04:31:39;9.52;;;4.18;;
72649;SDS011;61467;50.674;4.618;2024-01-30T04:34:06;10.38;;;4.10;;
72649;SDS011;61467;50.674;4.618;2024-01-30T04:36:32;10.97;;;4.27;;
72649;SDS011;61467;50.674;4.618;2024-01-30T04:39:01;8.48;;;3.80;;
72649;SDS011;61467;50.674;4.618;2024-01-30T04:41:28;11.00;;;3.97;;
72649;SDS011;61467;50.674;4.618;2024-01-30T04:43:57;8.55;;;4.05;;
72649;SDS011;61467;50.674;4.618;2024-01-30T04:46:23;11.23;;;4.72;;
72649;SDS011;61467;50.674;4.618;2024-01-30T04:48:50;8.13;;;4.17;;
72649;SDS011;61467;50.674;4.618;2024-01-30T04:51:17;8.55;;;3.55;;
72649;SDS011;61467;50.674;4.618;2024-01-30T04:53:44;8.40;;;4.20;;
72649;SDS011;61467;50.674;4.618;2024-01-30T04:56:12;9.30;;;4.50;;
72649;SDS011;61467;50.674;4.618;2024-01-30T04:58:39;10.60;;;4.45;;
72649;SDS011;61467;50.674;4.618;2024-01-30T05:01:06;9.93;;;4.40;;
72649;SDS011;61467;50.674;4.618;2024-01-30T05:03:33;9.45;;;4.30;;
72649;SDS011;61467;50.674;4.618;2024-01-30T05:06:00;12.00;;;4.43;;
72649;SDS011;61467;50.674;4.618;2024-01-30T05:08:27;7.93;;;4.32;;
72649;SDS011;61467;50.674;4.618;2024-01-30T05:10:55;8.77;;;4.07;;
72649;SDS011;61467;50.674;4.618;2024-01-30T05:13:23;10.10;;;4.20;;
72649;SDS011;61467;50.674;4.618;2024-01-30T05:15:50;12.13;;;4.28;;
72649;SDS011;61467;50.674;4.618;2024-01-30T05:18:17;9.77;;;4.60;;
72649;SDS011;61467;50.674;4.618;2024-01-30T05:20:44;10.13;;;4.25;;
72649;SDS011;61467;50.674;4.618;2024-01-30T05:23:10;10.23;;;4.45;;
72649;SDS011;61467;50.674;4.618;2024-01-30T05:25:37;9.67;;;3.90;;
72649;SDS011;61467;50.674;4.618;2024-01-30T05:28:05;9.90;;;4.47;;
72649;SDS011;61467;50.674;4.618;2024-01-30T05:30:33;11.20;;;4.47;;
72649;SDS011;61467;50.674;4.618;2024-01-30T05:33:00;9.15;;;4.22;;
72649;SDS011;61467;50.674;4.618;2024-01-30T05:35:27;10.75;;;5.32;;
72649;SDS011;61467;50.674;4.618;2024-01-30T05:37:54;9.17;;;4.37;;
72649;SDS011;61467;50.674;4.618;2024-01-30T05:40:21;11.65;;;4.70;;
72649;SDS011;61467;50.674;4.618;2024-01-30T05:42:48;10.48;;;4.28;;
72649;SDS011;61467;50.674;4.618;2024-01-30T05:45:15;9.80;;;4.80;;
72649;SDS011;61467;50.674;4.618;2024-01-30T05:47:43;9.40;;;4.25;;
72649;SDS011;61467;50.674;4.618;2024-01-30T05:50:10;10.90;;;4.50;;
72649;SDS011;61467;50.674;4.618;2024-01-30T05:52:37;9.55;;;4.55;;
72649;SDS011;61467;50.674;4.618;2024-01-30T05:55:04;9.00;;;4.35;;
72649;SDS011;61467;50.674;4.618;2024-01-30T05:57:31;13.45;;;5.75;;
72649;SDS011;61467;50.674;4.618;2024-01-30T05:59:57;10.15;;;4.80;;
72649;SDS011;61467;50.674;4.618;2024-01-30T06:02:24;11.43;;;4.90;;
72649;SDS011;61467;50.674;4.618;2024-01-30T06:04:53;11.77;;;5.47;;
72649;SDS011;61467;50.674;4.618;2024-01-30T06:07:20;10.88;;;5.18;;
72649;SDS011;61467;50.674;4.618;2024-01-30T06:09:47;11.02;;;4.90;;
72649;SDS011;61467;50.674;4.618;2024-01-30T06:12:14;11.05;;;5.30;;
72649;SDS011;61467;50.674;4.618;2024-01-30T06:14:40;9.03;;;4.47;;
72649;SDS011;61467;50.674;4.618;2024-01-30T06:17:07;11.80;;;4.68;;
72649;SDS011;61467;50.674;4.618;2024-01-30T06:19:34;12.07;;;5.38;;
72649;SDS011;61467;50.674;4.618;2024-01-30T06:22:03;11.63;;;5.20;;
72649;SDS011;61467;50.674;4.618;2024-01-30T06:24:30;10.10;;;5.20;;
72649;SDS011;61467;50.674;4.618;2024-01-30T06:26:57;8.53;;;4.60;;
72649;SDS011;61467;50.674;4.618;2024-01-30T06:29:24;9.45;;;5.07;;
72649;SDS011;61467;50.674;4.618;2024-01-30T06:31:51;10.55;;;4.90;;
72649;SDS011;61467;50.674;4.618;2024-01-30T06:34:18;13.35;;;5.50;;
72649;SDS011;61467;50.674;4.618;2024-01-30T06:36:45;9.52;;;5.07;;
72649;SDS011;61467;50.674;4.618;2024-01-30T06:39:13;10.80;;;5.00;;
72649;SDS011;61467;50.674;4.618;2024-01-30T06:41:40;9.25;;;4.75;;
72649;SDS011;61467;50.674;4.618;2024-01-30T06:44:07;10.80;;;4.80;;
72649;SDS011;61467;50.674;4.618;2024-01-30T06:46:34;12.05;;;4.50;;
72649;SDS011;61467;50.674;4.618;2024-01-30T06:49:02;10.07;;;4.88;;
72649;SDS011;61467;50.674;4.618;2024-01-30T06:51:29;10.50;;;4.97;;
72649;SDS011;61467;50.674;4.618;2024-01-30T06:53:55;10.30;;;4.80;;
72649;SDS011;61467;50.674;4.618;2024-01-30T06:56:24;10.20;;;5.03;;
72649;SDS011;61467;50.674;4.618;2024-01-30T06:58:51;9.52;;;5.18;;
72649;SDS011;61467;50.674;4.618;2024-01-30T07:01:18;9.27;;;5.07;;
72649;SDS011;61467;50.674;4.618;2024-01-30T07:03:45;10.73;;;4.70;;
72649;SDS011;61467;50.674;4.618;2024-01-30T07:06:12;11.05;;;4.65;;
72649;SDS011;61467;50.674;4.618;2024-01-30T07:08:39;10.23;;;4.30;;
72649;SDS011;61467;50.674;4.618;2024-01-30T07:11:06;10.27;;;5.20;;
72649;SDS011;61467;50.674;4.618;2024-01-30T07:13:35;11.73;;;5.15;;
72649;SDS011;61467;50.674;4.618;2024-01-30T07:16:02;9.10;;;4.47;;
72649;SDS011;61467;50.674;4.618;2024-01-30T07:18:29;10.50;;;4.68;;
72649;SDS011;61467;50.674;4.618;2024-01-30T07:20:56;9.93;;;5.40;;
72649;SDS011;61467;50.674;4.618;2024-01-30T07:23:22;9.68;;;5.00;;
72649;SDS011;61467;50.674;4.618;2024-01-30T07:25:49;10.50;;;5.78;;
72649;SDS011;61467;50.674;4.618;2024-01-30T07:28:16;17.37;;;5.57;;
72649;SDS011;61467;50.674;4.618;2024-01-30T07:30:44;12.63;;;4.95;;
72649;SDS011;61467;50.674;4.618;2024-01-30T07:33:12;13.27;;;5.15;;
72649;SDS011;61467;50.674;4.618;2024-01-30T07:35:40;13.13;;;5.47;;
72649;SDS011;61467;50.674;4.618;2024-01-30T07:38:07;15.23;;;5.70;;
72649;SDS011;61467;50.674;4.618;2024-01-30T07:40:34;11.57;;;5.27;;
72649;SDS011;61467;50.674;4.618;2024-01-30T07:43:01;10.13;;;4.93;;
72649;SDS011;61467;50.674;4.618;2024-01-30T07:45:28;13.73;;;5.45;;
72649;SDS011;61467;50.674;4.618;2024-01-30T07:47:59;11.55;;;5.70;;
72649;SDS011;61467;50.674;4.618;2024-01-30T07:50:26;10.55;;;4.90;;
72649;SDS011;61467;50.674;4.618;2024-01-30T07:52:53;13.57;;;5.33;;
72649;SDS011;61467;50.674;4.618;2024-01-30T07:55:22;12.82;;;5.30;;
72649;SDS011;61467;50.674;4.618;2024-01-30T07:57:52;10.32;;;4.88;;
72649;SDS011;61467;50.674;4.618;2024-01-30T08:00:20;11.70;;;5.53;;
72649;SDS011;61467;50.674;4.618;2024-01-30T08:02:49;15.35;;;6.70;;
72649;SDS011;61467;50.674;4.618;2024-01-30T08:05:20;15.50;;;5.80;;
72649;SDS011;61467;50.674;4.618;2024-01-30T08:07:48;13.82;;;4.90;;
72649;SDS011;61467;50.674;4.618;2024-01-30T08:10:15;12.32;;;5.53;;
72649;SDS011;61467;50.674;4.618;2024-01-30T08:12:43;13.35;;;5.07;;
72649;SDS011;61467;50.674;4.618;2024-01-30T08:15:11;13.82;;;4.97;;
72649;SDS011;61467;50.674;4.618;2024-01-30T08:17:38;13.00;;;5.47;;
72649;SDS011;61467;50.674;4.618;2024-01-30T08:20:06;11.55;;;5.28;;
72649;SDS011;61467;50.674;4.618;2024-01-30T08:22:37;12.77;;;5.65;;
72649;SDS011;61467;50.674;4.618;2024-01-30T08:25:05;12.57;;;5.30;;
72649;SDS011;61467;50.674;4.618;2024-01-30T08:27:32;9.88;;;4.90;;
72649;SDS011;61467;50.674;4.618;2024-01-30T08:30:00;10.10;;;5.77;;
72649;SDS011;61467;50.674;4.618;2024-01-30T08:32:28;12.70;;;4.82;;
72649;SDS011;61467;50.674;4.618;2024-01-30T08:34:54;9.98;;;5.00;;
72649;SDS011;61467;50.674;4.618;2024-01-30T08:37:21;9.52;;;4.68;;
72649;SDS011;61467;50.674;4.618;2024-01-30T08:39:49;11.32;;;5.20;;
72649;SDS011;61467;50.674;4.618;2024-01-30T08:42:16;11.13;;;5.10;;
72649;SDS011;61467;50.674;4.618;2024-01-30T08:44:47;12.00;;;4.97;;
72649;SDS011;61467;50.674;4.618;2024-01-30T08:47:14;12.02;;;5.07;;
72649;SDS011;61467;50.674;4.618;2024-01-30T08:49:42;11.18;;;4.65;;
72649;SDS011;61467;50.674;4.618;2024-01-30T08:52:10;10.10;;;5.28;;
72649;SDS011;61467;50.674;4.618;2024-01-30T08:54:37;10.50;;;4.97;;
72649;SDS011;61467;50.674;4.618;2024-01-30T08:57:05;13.80;;;5.20;;
72649;SDS011;61467;50.674;4.618;2024-01-30T08:59:32;12.32;;;5.25;;
72649;SDS011;61467;50.674;4.618;2024-01-30T09:01:59;12.90;;;5.22;;
72649;SDS011;61467;50.674;4.618;2024-01-30T09:04:29;10.70;;;5.20;;
72649;SDS011;61467;50.674;4.618;2024-01-30T09:06:56;12.17;;;6.03;;
72649;SDS011;61467;50.674;4.618;2024-01-30T09:09:23;13.55;;;6.60;;
72649;SDS011;61467;50.674;4.618;2024-01-30T09:11:50;12.70;;;4.72;;
72649;SDS011;61467;50.674;4.618;2024-01-30T09:14:18;11.30;;;5.18;;
72649;SDS011;61467;50.674;4.618;2024-01-30T09:16:45;11.50;;;5.05;;
72649;SDS011;61467;50.674;4.618;2024-01-30T09:19:13;12.53;;;5.70;;
72649;SDS011;61467;50.674;4.618;2024-01-30T09:21:40;13.02;;;6.15;;
72649;SDS011;61467;50.674;4.618;2024-01-30T09:24:07;14.55;;;5.43;;
72649;SDS011;61467;50.674;4.618;2024-01-30T09:26:34;11.45;;;4.82;;
72649;SDS011;61467;50.674;4.618;2024-01-30T09:29:01;10.98;;;5.32;;
72649;SDS011;61467;50.674;4.618;2024-01-30T09:31:29;12.17;;;5.47;;
72649;SDS011;61467;50.674;4.618;2024-01-30T09:33:56;19.85;;;5.80;;
72649;SDS011;61467;50.674;4.618;2024-01-30T09:36:23;12.10;;;5.15;;
72649;SDS011;61467;50.674;4.618;2024-01-30T09:38:50;13.38;;;5.72;;
72649;SDS011;61467;50.674;4.618;2024-01-30T09:41:17;14.35;;;6.50;;
72649;SDS011;61467;50.674;4.618;2024-01-30T09:43:47;12.23;;;5.87;;
72649;SDS011;61467;50.674;4.618;2024-01-30T09:46:14;15.80;;;6.47;;
72649;SDS011;61467;50.674;4.618;2024-01-30T09:48:44;14.82;;;6.03;;
72649;SDS011;61467;50.674;4.618;2024-01-30T09:51:12;13.57;;;6.20;;
72649;SDS011;61467;50.674;4.618;2024-01-30T09:53:42;15.40;;;6.30;;
72649;SDS011;61467;50.674;4.618;2024-01-30T09:56:09;15.10;;;6.17;;
72649;SDS011;61467;50.674;4.618;2024-01-30T09:58:37;15.93;;;6.65;;
72649;SDS011;61467;50.674;4.618;2024-01-30T10:01:05;14.18;;;5.45;;
72649;SDS011;61467;50.674;4.618;2024-01-30T10:03:32;16.60;;;5.43;;
72649;SDS011;61467;50.674;4.618;2024-01-30T10:06:00;11.07;;;5.65;;
72649;SDS011;61467;50.674;4.618;2024-01-30T10:08:29;11.57;;;5.97;;
72649;SDS011;61467;50.674;4.618;2024-01-30T10:10:56;13.93;;;6.25;;
72649;SDS011;61467;50.674;4.618;2024-01-30T10:13:23;16.35;;;5.70;;
72649;SDS011;61467;50.674;4.618;2024-01-30T10:15:50;11.68;;;5.22;;
72649;SDS011;61467;50.674;4.618;2024-01-30T10:18:17;13.00;;;5.57;;
72649;SDS011;61467;50.674;4.618;2024-01-30T10:20:44;11.17;;;5.30;;
72649;SDS011;61467;50.674;4.618;2024-01-30T10:23:12;12.27;;;5.35;;
72649;SDS011;61467;50.674;4.618;2024-01-30T10:25:39;11.43;;;5.90;;
72649;SDS011;61467;50.674;4.618;2024-01-30T10:28:06;14.82;;;6.10;;
72649;SDS011;61467;50.674;4.618;2024-01-30T10:30:33;11.38;;;5.60;;
72649;SDS011;61467;50.674;4.618;2024-01-30T10:33:00;14.23;;;5.43;;
72649;SDS011;61467;50.674;4.618;2024-01-30T10:35:29;13.40;;;5.57;;
72649;SDS011;61467;50.674;4.618;2024-01-30T10:37:56;9.68;;;5.15;;
72649;SDS011;61467;50.674;4.618;2024-01-30T10:40:28;12.68;;;5.35;;
72649;SDS011;61467;50.674;4.618;2024-01-30T10:42:55;12.75;;;6.10;;
72649;SDS011;61467;50.674;4.618;2024-01-30T10:45:22;12.13;;;5.80;;
72649;SDS011;61467;50.674;4.618;2024-01-30T10:47:52;11.45;;;5.97;;
72649;SDS011;61467;50.674;4.618;2024-01-30T10:50:21;12.57;;;5.93;;
72649;SDS011;61467;50.674;4.618;2024-01-30T10:52:51;14.10;;;7.38;;
72649;SDS011;61467;50.674;4.618;2024-01-30T10:55:19;12.43;;;6.25;;
72649;SDS011;61467;50.674;4.618;2024-01-30T10:57:50;15.07;;;7.47;;
72649;SDS011;61467;50.674;4.618;2024-01-30T11:00:18;22.58;;;6.72;;
72649;SDS011;61467;50.674;4.618;2024-01-30T11:02:48;15.57;;;7.40;;
72649;SDS011;61467;50.674;4.618;2024-01-30T11:05:23;13.52;;;7.38;;
72649;SDS011;61467;50.674;4.618;2024-01-30T11:07:50;16.83;;;7.57;;
72649;SDS011;61467;50.674;4.618;2024-01-30T11:10:17;17.87;;;7.97;;
72649;SDS011;61467;50.674;4.618;2024-01-30T11:12:45;15.15;;;7.18;;
72649;SDS011;61467;50.674;4.618;2024-01-30T11:15:14;14.13;;;7.22;;
72649;SDS011;61467;50.674;4.618;2024-01-30T11:17:43;14.63;;;7.90;;
72649;SDS011;61467;50.674;4.618;2024-01-30T11:20:11;14.00;;;8.27;;
72649;SDS011;61467;50.674;4.618;2024-01-30T11:22:41;15.37;;;8.10;;
72649;SDS011;61467;50.674;4.618;2024-01-30T11:25:11;18.05;;;8.68;;
72649;SDS011;61467;50.674;4.618;2024-01-30T11:27:38;19.67;;;8.00;;
72649;SDS011;61467;50.674;4.618;2024-01-30T11:30:06;14.68;;;7.63;;
72649;SDS011;61467;50.674;4.618;2024-01-30T11:32:35;20.98;;;7.78;;
72649;SDS011;61467;50.674;4.618;2024-01-30T11:35:03;16.97;;;8.30;;
72649;SDS011;61467;50.674;4.618;2024-01-30T11:37:31;15.73;;;7.80;;
72649;SDS011;61467;50.674;4.618;2024-01-30T11:39:58;16.55;;;7.80;;
72649;SDS011;61467;50.674;4.618;2024-01-30T11:42:25;23.73;;;8.10;;
72649;SDS011;61467;50.674;4.618;2024-01-30T11:44:53;16.98;;;7.75;;
72649;SDS011;61467;50.674;4.618;2024-01-30T11:47:22;18.53;;;7.47;;
72649;SDS011;61467;50.674;4.618;2024-01-30T11:49:50;16.55;;;6.80;;
72649;SDS011;61467;50.674;4.618;2024-01-30T11:52:17;15.15;;;6.53;;
72649;SDS011;61467;50.674;4.618;2024-01-30T11:54:44;11.70;;;5.50;;
72649;SDS011;61467;50.674;4.618;2024-01-30T11:57:11;10.57;;;3.50;;
72649;SDS011;61467;50.674;4.618;2024-01-30T11:59:38;9.00;;;2.77;;
72649;SDS011;61467;50.674;4.618;2024-01-30T12:02:05;6.53;;;2.35;;
72649;SDS011;61467;50.674;4.618;2024-01-30T12:04:31;6.20;;;1.85;;
72649;SDS011;61467;50.674;4.618;2024-01-30T12:07:00;6.05;;;1.70;;
72649;SDS011;61467;50.674;4.618;2024-01-30T12:09:27;7.88;;;2.08;;
72649;SDS011;61467;50.674;4.618;2024-01-30T12:11:53;4.60;;;1.10;;
72649;SDS011;61467;50.674;4.618;2024-01-30T12:14:22;6.20;;;1.50;;
72649;SDS011;61467;50.674;4.618;2024-01-30T12:16:50;6.45;;;1.70;;
72649;SDS011;61467;50.674;4.618;2024-01-30T12:19:23;7.03;;;1.83;;
72649;SDS011;61467;50.674;4.618;2024-01-30T12:22:03;6.57;;;1.85;;
72649;SDS011;61467;50.674;4.618;2024-01-30T12:24:30;7.67;;;2.00;;
72649;SDS011;61467;50.674;4.618;2024-01-30T12:26:57;6.13;;;1.40;;
72649;SDS011;61467;50.674;4.618;2024-01-30T12:29:24;6.10;;;1.50;;
72649;SDS011;61467;50.674;4.618;2024-01-30T12:31:54;6.53;;;1.98;;
72649;SDS011;61467;50.674;4.618;2024-01-30T12:34:22;7.03;;;1.63;;
72649;SDS011;61467;50.674;4.618;2024-01-30T12:36:51;8.30;;;1.80;;
72649;SDS011;61467;50.674;4.618;2024-01-30T12:39:19;4.57;;;1.40;;
72649;SDS011;61467;50.674;4.618;2024-01-30T12:41:47;5.72;;;1.58;;
72649;SDS011;61467;50.674;4.618;2024-01-30T12:44:14;6.60;;;1.45;;
72649;SDS011;61467;50.674;4.618;2024-01-30T12:46:40;5.60;;;1.90;;
72649;SDS011;61467;50.674;4.618;2024-01-30T12:49:07;5.23;;;1.43;;
72649;SDS011;61467;50.674;4.618;2024-01-30T12:51:34;6.68;;;1.30;;
72649;SDS011;61467;50.674;4.618;2024-01-30T12:54:04;6.93;;;1.48;;
72649;SDS011;61467;50.674;4.618;2024-01-30T12:56:33;6.75;;;1.50;;
72649;SDS011;61467;50.674;4.618;2024-01-30T12:59:00;6.22;;;1.30;;
72649;SDS011;61467;50.674;4.618;2024-01-30T13:01:27;6.13;;;1.30;;
72649;SDS011;61467;50.674;4.618;2024-01-30T13:03:56;4.82;;;1.40;;
72649;SDS011;61467;50.674;4.618;2024-01-30T13:06:23;3.05;;;0.80;;
72649;SDS011;61467;50.674;4.618;2024-01-30T13:08:50;5.07;;;1.30;;
72649;SDS011;61467;50.674;4.618;2024-01-30T13:11:17;4.63;;;1.25;;
72649;SDS011;61467;50.674;4.618;2024-01-30T13:13:45;3.20;;;0.97;;
72649;SDS011;61467;50.674;4.618;2024-01-30T13:16:12;5.65;;;0.88;;
72649;SDS011;61467;50.674;4.618;2024-01-30T13:18:39;3.90;;;1.10;;
72649;SDS011;61467;50.674;4.618;2024-01-30T13:21:06;4.68;;;1.27;;
72649;SDS011;61467;50.674;4.618;2024-01-30T13:23:33;4.35;;;0.68;;
72649;SDS011;61467;50.674;4.618;2024-01-30T13:26:00;3.67;;;0.73;;
72649;SDS011;61467;50.674;4.618;2024-01-30T13:28:27;3.75;;;0.90;;
72649;SDS011;61467;50.674;4.618;2024-01-30T13:30:55;3.88;;;0.90;;
72649;SDS011;61467;50.674;4.618;2024-01-30T13:33:22;3.80;;;0.60;;
72649;SDS011;61467;50.674;4.618;2024-01-30T13:35:49;3.58;;;0.73;;
72649;SDS011;61467;50.674;4.618;2024-01-30T13:38:16;4.90;;;0.80;;
72649;SDS011;61467;50.674;4.618;2024-01-30T13:40:43;3.03;;;0.60;;
72649;SDS011;61467;50.674;4.618;2024-01-30T13:43:10;3.22;;;0.90;;
72649;SDS011;61467;50.674;4.618;2024-01-30T13:45:37;4.70;;;1.08;;
72649;SDS011;61467;50.674;4.618;2024-01-30T13:48:06;4.82;;;1.00;;
72649;SDS011;61467;50.674;4.618;2024-01-30T13:50:33;4.37;;;0.77;;
72649;SDS011;61467;50.674;4.618;2024-01-30T13:52:59;5.53;;;0.82;;
72649;SDS011;61467;50.674;4.618;2024-01-30T13:55:26;2.92;;;0.60;;
72649;SDS011;61467;50.674;4.618;2024-01-30T13:57:53;2.92;;;0.80;;
72649;SDS011;61467;50.674;4.618;2024-01-30T14:00:21;3.40;;;1.10;;
72649;SDS011;61467;50.674;4.618;2024-01-30T14:02:48;3.63;;;1.00;;
72649;SDS011;61467;50.674;4.618;2024-01-30T14:05:16;4.47;;;1.02;;
72649;SDS011;61467;50.674;4.618;2024-01-30T14:07:43;3.65;;;0.70;;
72649;SDS011;61467;50.674;4.618;2024-01-30T14:10:10;4.50;;;1.10;;
72649;SDS011;61467;50.674;4.618;2024-01-30T14:12:38;3.75;;;1.05;;
72649;SDS011;61467;50.674;4.618;2024-01-30T14:15:06;7.60;;;1.60;;
72649;SDS011;61467;50.674;4.618;2024-01-30T14:17:35;4.50;;;1.27;;
72649;SDS011;61467;50.674;4.618;2024-01-30T14:20:02;5.90;;;1.40;;
72649;SDS011;61467;50.674;4.618;2024-01-30T14:22:31;5.32;;;1.45;;
72649;SDS011;61467;50.674;4.618;2024-01-30T14:25:00;6.15;;;1.38;;
72649;SDS011;61467;50.674;4.618;2024-01-30T14:27:28;3.63;;;1.00;;
72649;SDS011;61467;50.674;4.618;2024-01-30T14:29:55;5.75;;;1.30;;
72649;SDS011;61467;50.674;4.618;2024-01-30T14:32:23;5.72;;;1.95;;
72649;SDS011;61467;50.674;4.618;2024-01-30T14:34:50;5.78;;;1.20;;
72649;SDS011;61467;50.674;4.618;2024-01-30T14:37:17;5.03;;;1.38;;
72649;SDS011;61467;50.674;4.618;2024-01-30T14:39:46;3.70;;;1.00;;
72649;SDS011;61467;50.674;4.618;2024-01-30T14:42:13;4.03;;;0.80;;